createdAt,value
2019-04-30T00:01:18.443Z,9.23
2019-04-30T00:03:55.733Z,10.23
2019-04-30T00:06:28.841Z,9.87
2019-04-30T00:08:57.555Z,9.63
2019-04-30T00:11:26.889Z,10.37
2019-04-30T00:13:58.876Z,10.33
2019-04-30T00:16:30.925Z,10.37
2019-04-30T00:19:00.863Z,10.10
2019-04-30T00:21:30.861Z,9.77
2019-04-30T00:24:05.379Z,10.37
2019-04-30T00:26:32.331Z,10.10
2019-04-30T00:29:02.059Z,11.73
2019-04-30T00:31:32.763Z,11.53
2019-04-30T00:34:02.488Z,11.80
2019-04-30T00:36:34.086Z,12.27
2019-04-30T00:39:07.177Z,11.37
2019-04-30T00:41:35.439Z,11.77
2019-04-30T00:44:05.449Z,12.57
2019-04-30T00:46:36.444Z,11.27
2019-04-30T00:49:09.984Z,11.83
2019-04-30T00:51:37.642Z,12.23
2019-04-30T00:54:07.340Z,12.13
2019-04-30T00:56:37.067Z,12.07
2019-04-30T00:59:10.425Z,12.53
2019-04-30T01:01:57.048Z,12.60
2019-04-30T01:04:32.403Z,13.37
2019-04-30T01:07:05.341Z,13.63
2019-04-30T01:09:35.315Z,13.50
2019-04-30T01:12:05.474Z,13.37
2019-04-30T01:14:35.523Z,12.70
2019-04-30T01:17:08.831Z,11.63
2019-04-30T01:19:36.709Z,11.73
2019-04-30T01:22:06.272Z,11.50
2019-04-30T01:24:35.991Z,10.93
2019-04-30T01:27:06.981Z,10.40
2019-04-30T01:29:41.018Z,10.70
2019-04-30T01:32:10.501Z,9.67
2019-04-30T01:34:44.089Z,10.23
2019-04-30T01:37:11.085Z,9.67
2019-04-30T01:39:40.801Z,8.67
2019-04-30T01:42:11.448Z,9.33
2019-04-30T01:44:43.444Z,9.07
2019-04-30T01:47:12.796Z,8.90
2019-04-30T01:49:44.760Z,8.77
2019-04-30T01:52:13.655Z,9.80
2019-04-30T01:54:43.390Z,8.47
2019-04-30T01:57:33.499Z,8.83
2019-04-30T02:00:14.911Z,8.70
2019-04-30T02:02:45.654Z,8.37
2019-04-30T02:05:15.526Z,9.77
2019-04-30T02:07:46.024Z,8.40
2019-04-30T02:10:16.203Z,9.77
2019-04-30T02:12:45.948Z,9.40
2019-04-30T02:15:15.672Z,10.13
2019-04-30T02:17:45.405Z,8.90
2019-04-30T02:20:15.087Z,8.87
2019-04-30T02:22:44.801Z,9.47
2019-04-30T02:25:14.433Z,10.33
2019-04-30T02:27:44.091Z,9.37
2019-04-30T02:30:13.904Z,10.63
2019-04-30T02:32:44.112Z,10.27
2019-04-30T02:35:30.780Z,9.93
2019-04-30T02:38:13.554Z,10.60
2019-04-30T02:40:43.177Z,10.97
2019-04-30T02:43:14.184Z,10.43
2019-04-30T02:45:46.420Z,11.50
2019-04-30T02:48:19.367Z,9.90
2019-04-30T02:50:50.549Z,10.43
2019-04-30T02:53:56.236Z,10.60
2019-04-30T02:56:27.117Z,9.43
2019-04-30T02:59:03.200Z,9.50
2019-04-30T03:01:30.493Z,9.07
2019-04-30T03:04:00.511Z,10.60
2019-04-30T03:06:30.586Z,10.43
2019-04-30T03:09:01.202Z,11.40
2019-04-30T03:11:31.340Z,10.77
2019-04-30T03:14:00.902Z,10.73
2019-04-30T03:16:40.173Z,9.80
2019-04-30T03:19:20.016Z,10.43
2019-04-30T03:22:11.127Z,10.27
2019-04-30T03:24:42.941Z,10.10
2019-04-30T03:27:12.065Z,10.33
2019-04-30T03:29:41.786Z,9.67
2019-04-30T03:32:13.253Z,10.50
2019-04-30T03:34:42.960Z,10.83
2019-04-30T03:37:12.976Z,10.03
2019-04-30T03:39:42.644Z,9.37
2019-04-30T03:42:12.388Z,9.47
2019-04-30T03:44:42.448Z,10.23
2019-04-30T03:47:11.988Z,9.17
2019-04-30T03:49:41.758Z,9.47
2019-04-30T03:52:13.291Z,9.10
2019-04-30T03:54:42.769Z,8.33
2019-04-30T03:57:15.948Z,8.90
2019-04-30T03:59:45.710Z,9.90
2019-04-30T04:02:41.110Z,8.77
2019-04-30T04:05:32.843Z,8.50
2019-04-30T04:08:21.121Z,8.20
2019-04-30T04:11:12.469Z,9.13
2019-04-30T04:13:42.179Z,9.17
2019-04-30T04:16:11.903Z,8.80
2019-04-30T04:18:41.645Z,8.87
2019-04-30T04:21:16.474Z,8.23
2019-04-30T04:23:42.664Z,8.27
2019-04-30T04:26:12.430Z,8.43
2019-04-30T04:28:43.563Z,7.40
2019-04-30T04:31:13.483Z,8.73
2019-04-30T04:33:43.146Z,7.90
2019-04-30T04:36:12.747Z,8.33
2019-04-30T04:38:42.462Z,8.43
2019-04-30T04:41:12.194Z,7.90
2019-04-30T04:43:41.872Z,8.40
2019-04-30T04:46:11.604Z,9.10
2019-04-30T04:48:41.313Z,8.70
2019-04-30T04:51:27.188Z,8.93
2019-04-30T04:53:42.204Z,8.33
2019-04-30T04:56:11.883Z,8.87
2019-04-30T04:58:41.474Z,7.57
2019-04-30T05:01:11.913Z,8.43
2019-04-30T05:03:41.724Z,8.63
2019-04-30T05:06:11.956Z,9.30
2019-04-30T05:08:43.443Z,10.27
2019-04-30T05:11:13.107Z,9.77
2019-04-30T05:13:42.775Z,8.40
2019-04-30T05:16:12.501Z,9.23
2019-04-30T05:18:42.489Z,8.30
2019-04-30T05:21:12.138Z,8.97
2019-04-30T05:23:42.738Z,8.80
2019-04-30T05:26:12.658Z,9.03
2019-04-30T05:28:42.293Z,11.37
2019-04-30T05:31:11.972Z,9.17
2019-04-30T05:33:41.723Z,8.13
2019-04-30T05:36:12.640Z,8.27
2019-04-30T05:38:42.340Z,7.60
2019-04-30T05:41:12.010Z,8.63
2019-04-30T05:43:41.667Z,9.37
2019-04-30T05:46:13.913Z,7.07
2019-04-30T05:48:42.739Z,7.80
2019-04-30T05:51:12.319Z,7.63
2019-04-30T05:53:41.966Z,5.93
2019-04-30T05:56:11.681Z,6.70
2019-04-30T05:58:41.862Z,5.63
2019-04-30T06:01:11.719Z,5.60
2019-04-30T06:03:41.408Z,5.20
2019-04-30T06:06:11.482Z,5.07
2019-04-30T06:08:49.074Z,4.63
2019-04-30T06:11:39.321Z,4.20
2019-04-30T06:14:48.413Z,4.07
2019-04-30T06:17:10.836Z,4.43
2019-04-30T06:19:40.818Z,4.13
2019-04-30T06:22:11.085Z,3.60
2019-04-30T06:24:41.472Z,4.43
2019-04-30T06:27:11.216Z,5.10
2019-04-30T06:29:41.481Z,4.90
2019-04-30T06:32:11.059Z,5.10
2019-04-30T06:34:41.975Z,5.00
2019-04-30T06:37:11.964Z,5.27
2019-04-30T06:39:41.635Z,4.83
2019-04-30T06:42:12.922Z,5.60
2019-04-30T06:44:43.330Z,5.87
2019-04-30T06:47:13.328Z,13.97
2019-04-30T06:49:42.986Z,6.90
2019-04-30T06:52:20.765Z,6.83
2019-04-30T06:54:43.800Z,6.60
2019-04-30T06:57:13.533Z,6.67
2019-04-30T06:59:43.219Z,6.83
2019-04-30T07:02:12.927Z,6.57
2019-04-30T07:04:42.651Z,7.23
2019-04-30T07:07:14.283Z,7.13
2019-04-30T07:10:00.922Z,7.27
2019-04-30T07:12:49.117Z,6.43
2019-04-30T07:15:19.680Z,6.40
2019-04-30T07:17:49.684Z,6.90
2019-04-30T07:20:19.400Z,6.70
2019-04-30T07:22:56.754Z,6.10
2019-04-30T07:25:20.491Z,6.17
2019-04-30T07:27:50.568Z,5.77
2019-04-30T07:30:20.498Z,6.00
2019-04-30T07:32:50.203Z,5.93
2019-04-30T07:35:19.931Z,6.30
2019-04-30T07:37:49.936Z,6.20
2019-04-30T07:40:19.737Z,6.00
2019-04-30T07:42:49.475Z,5.37
2019-04-30T07:45:19.603Z,6.87
2019-04-30T07:47:49.596Z,6.00
2019-04-30T07:50:21.557Z,6.77
2019-04-30T07:53:01.540Z,6.87
2019-04-30T07:55:21.883Z,6.20
2019-04-30T07:57:51.591Z,6.57
2019-04-30T08:00:21.313Z,6.17
2019-04-30T08:02:59.854Z,6.43
2019-04-30T08:05:34.327Z,6.53
2019-04-30T08:08:20.602Z,6.67
2019-04-30T08:10:35.344Z,7.10
2019-04-30T08:13:10.208Z,8.00
2019-04-30T08:15:36.357Z,7.00
2019-04-30T08:18:06.108Z,6.63
2019-04-30T08:20:35.792Z,7.20
2019-04-30T08:23:15.594Z,7.07
2019-04-30T08:25:38.993Z,7.43
2019-04-30T08:28:09.132Z,7.33
2019-04-30T08:30:39.222Z,6.70
2019-04-30T08:33:09.565Z,7.00
2019-04-30T08:35:39.770Z,7.57
2019-04-30T08:38:10.842Z,7.47
2019-04-30T08:40:53.255Z,7.27
2019-04-30T08:43:12.116Z,7.90
2019-04-30T08:45:41.782Z,7.77
2019-04-30T08:48:13.354Z,8.20
2019-04-30T08:50:43.122Z,7.57
2019-04-30T08:53:12.669Z,8.37
2019-04-30T08:55:42.300Z,8.50
2019-04-30T08:58:15.127Z,8.47
2019-04-30T09:00:43.323Z,9.23
2019-04-30T09:03:13.077Z,9.20
2019-04-30T09:06:05.131Z,8.03
2019-04-30T09:08:35.666Z,8.33
2019-04-30T09:11:05.319Z,9.77
2019-04-30T09:13:35.091Z,8.90
2019-04-30T09:16:04.749Z,9.63
2019-04-30T09:18:34.451Z,10.00
2019-04-30T09:21:06.361Z,9.73
2019-04-30T09:23:47.405Z,9.80
2019-04-30T09:26:08.704Z,10.03
2019-04-30T09:28:40.720Z,10.20
2019-04-30T09:31:09.459Z,10.30
2019-04-30T09:33:39.421Z,10.33
2019-04-30T09:36:09.269Z,10.40
2019-04-30T09:38:39.037Z,10.10
2019-04-30T09:41:09.284Z,9.13
2019-04-30T09:43:40.530Z,10.50
2019-04-30T09:46:22.092Z,9.93
2019-04-30T09:48:41.720Z,10.00
2019-04-30T09:51:11.795Z,10.23
2019-04-30T09:53:41.880Z,9.50
2019-04-30T09:56:11.725Z,10.67
2019-04-30T09:58:41.411Z,11.70
2019-04-30T10:01:11.081Z,10.37
2019-04-30T10:03:41.636Z,11.73
2019-04-30T10:06:12.017Z,11.57
2019-04-30T10:08:48.318Z,12.23
2019-04-30T10:11:37.735Z,11.60
2019-04-30T10:14:07.522Z,11.40
2019-04-30T10:16:42.951Z,12.87
2019-04-30T10:19:14.911Z,12.47
2019-04-30T10:21:43.991Z,11.20
2019-04-30T10:24:15.719Z,12.47
2019-04-30T10:26:45.155Z,13.30
2019-04-30T10:29:16.172Z,13.83
2019-04-30T10:31:45.823Z,15.40
2019-04-30T10:34:15.520Z,15.37
2019-04-30T10:36:45.236Z,17.57
2019-04-30T10:39:14.983Z,19.30
2019-04-30T10:41:44.674Z,18.67
2019-04-30T10:44:14.391Z,20.20
2019-04-30T10:46:44.236Z,19.53
2019-04-30T10:49:13.991Z,20.87
2019-04-30T10:51:43.808Z,25.87
2019-04-30T10:54:23.290Z,19.47
2019-04-30T10:56:44.737Z,19.77
2019-04-30T10:59:14.461Z,21.03
2019-04-30T11:01:44.315Z,20.43
2019-04-30T11:04:16.454Z,21.23
2019-04-30T11:06:46.064Z,20.57
2019-04-30T11:09:15.727Z,21.53
2019-04-30T11:11:45.371Z,22.00
2019-04-30T11:14:15.079Z,21.43
2019-04-30T11:16:44.952Z,20.53
2019-04-30T11:19:15.153Z,20.17
2019-04-30T11:21:45.043Z,21.70
2019-04-30T11:24:14.927Z,20.27
2019-04-30T11:26:45.203Z,20.77
2019-04-30T11:29:15.733Z,21.83
2019-04-30T11:32:00.345Z,21.37
2019-04-30T11:34:48.995Z,21.83
2019-04-30T11:37:18.758Z,22.57
2019-04-30T11:39:48.548Z,21.53
2019-04-30T11:42:18.148Z,23.77
2019-04-30T11:44:48.754Z,23.80
2019-04-30T11:47:34.395Z,22.37
2019-04-30T11:50:14.539Z,25.13
2019-04-30T11:52:44.243Z,25.33
2019-04-30T11:55:15.197Z,24.97
2019-04-30T11:57:44.892Z,23.07
2019-04-30T12:00:19.398Z,23.80
2019-04-30T12:02:52.926Z,23.67
2019-04-30T12:05:22.171Z,25.40
2019-04-30T12:08:10.739Z,26.50
2019-04-30T12:11:02.088Z,25.37
2019-04-30T12:13:34.592Z,25.70
2019-04-30T12:16:04.496Z,26.53
2019-04-30T12:18:34.207Z,25.67
2019-04-30T12:21:04.016Z,26.17
2019-04-30T12:23:33.771Z,25.50
2019-04-30T12:26:03.498Z,26.37
2019-04-30T12:28:33.283Z,27.23
2019-04-30T12:31:05.645Z,25.77
2019-04-30T12:33:34.255Z,25.93
2019-04-30T12:36:06.283Z,25.20
2019-04-30T12:38:35.337Z,25.87
2019-04-30T12:41:05.239Z,25.17
2019-04-30T12:43:35.002Z,25.37
2019-04-30T12:46:05.679Z,26.57
2019-04-30T12:48:53.652Z,26.13
2019-04-30T12:51:45.899Z,26.07
2019-04-30T12:54:32.779Z,24.80
2019-04-30T12:57:13.167Z,25.43
2019-04-30T12:59:44.367Z,24.80
2019-04-30T13:02:14.099Z,23.80
2019-04-30T13:04:43.691Z,25.60
2019-04-30T13:07:14.031Z,23.70
2019-04-30T13:09:44.788Z,24.23
2019-04-30T13:12:15.768Z,24.77
2019-04-30T13:14:51.481Z,23.87
2019-04-30T13:17:17.167Z,23.57
2019-04-30T13:19:46.923Z,25.70
2019-04-30T13:22:16.592Z,24.27
2019-04-30T13:24:46.332Z,25.57
2019-04-30T13:27:16.008Z,24.97
2019-04-30T13:29:53.316Z,24.10
2019-04-30T13:32:30.016Z,24.50
2019-04-30T13:35:00.774Z,22.27
2019-04-30T13:37:38.984Z,22.87
2019-04-30T13:40:20.291Z,24.03
2019-04-30T13:42:50.779Z,24.37
2019-04-30T13:45:20.779Z,21.37
2019-04-30T13:47:50.775Z,20.87
2019-04-30T13:50:21.547Z,23.67
2019-04-30T13:52:51.407Z,21.30
2019-04-30T13:55:21.119Z,22.00
2019-04-30T13:57:50.802Z,21.10
2019-04-30T14:00:24.712Z,20.83
2019-04-30T14:03:10.135Z,19.67
2019-04-30T14:05:39.877Z,17.17
2019-04-30T14:08:30.038Z,16.77
2019-04-30T14:10:59.751Z,19.00
2019-04-30T14:13:29.414Z,20.60
2019-04-30T14:15:59.242Z,20.43
2019-04-30T14:18:33.824Z,21.50
2019-04-30T14:21:01.073Z,19.90
2019-04-30T14:23:30.746Z,19.93
2019-04-30T14:26:01.222Z,16.60
2019-04-30T14:28:30.862Z,16.43
2019-04-30T14:31:00.567Z,16.23
2019-04-30T14:33:30.293Z,15.90
2019-04-30T14:36:01.011Z,18.10
2019-04-30T14:38:30.734Z,17.30
2019-04-30T14:41:01.510Z,18.23
2019-04-30T14:43:54.648Z,17.33
2019-04-30T14:46:43.806Z,16.67
2019-04-30T14:49:33.793Z,15.03
2019-04-30T14:52:04.533Z,15.83
2019-04-30T14:54:51.738Z,16.43
2019-04-30T14:57:42.172Z,16.93
2019-04-30T15:00:45.691Z,15.93
2019-04-30T15:03:16.542Z,17.20
2019-04-30T15:05:50.972Z,21.77
2019-04-30T15:08:19.326Z,25.27
2019-04-30T15:10:48.909Z,27.33
2019-04-30T15:13:19.493Z,25.23
2019-04-30T15:15:49.833Z,27.03
2019-04-30T15:18:19.550Z,26.67
2019-04-30T15:20:49.894Z,21.17
2019-04-30T15:23:31.975Z,19.67
2019-04-30T15:26:01.564Z,16.83
2019-04-30T15:28:32.721Z,16.70
2019-04-30T15:31:21.511Z,15.73
2019-04-30T15:34:05.394Z,14.37
2019-04-30T15:36:35.106Z,15.53
2019-04-30T15:39:31.343Z,15.77
2019-04-30T15:42:02.193Z,15.27
2019-04-30T15:44:39.910Z,15.17
2019-04-30T15:47:04.724Z,16.73
2019-04-30T15:49:34.491Z,16.63
2019-04-30T15:52:04.737Z,27.00
2019-04-30T15:54:34.473Z,16.47
2019-04-30T15:57:05.074Z,16.60
2019-04-30T15:59:41.059Z,15.90
2019-04-30T16:02:53.470Z,14.93
2019-04-30T16:05:35.412Z,16.43
2019-04-30T16:08:18.884Z,16.53
2019-04-30T16:11:10.397Z,16.03
2019-04-30T16:13:56.128Z,18.13
2019-04-30T16:16:29.649Z,18.17
2019-04-30T16:18:59.374Z,18.13
2019-04-30T16:21:29.320Z,18.90
2019-04-30T16:23:59.298Z,18.87
2019-04-30T16:26:29.143Z,20.63
2019-04-30T16:28:59.039Z,18.70
2019-04-30T16:31:39.243Z,18.03
2019-04-30T16:34:08.818Z,17.03
2019-04-30T16:36:38.993Z,17.07
2019-04-30T16:39:09.855Z,17.57
2019-04-30T16:41:40.843Z,14.57
2019-04-30T16:44:10.890Z,15.13
2019-04-30T16:46:41.118Z,13.87
2019-04-30T16:49:13.413Z,12.80
2019-04-30T16:51:42.059Z,14.53
2019-04-30T16:54:11.812Z,14.23
2019-04-30T16:56:41.512Z,12.63
2019-04-30T16:59:12.930Z,13.03
2019-04-30T17:01:42.578Z,21.63
2019-04-30T17:04:46.203Z,12.83
2019-04-30T17:07:25.488Z,11.80
2019-04-30T17:10:02.284Z,11.93
2019-04-30T17:12:43.643Z,12.40
2019-04-30T17:15:32.775Z,11.43
2019-04-30T17:18:03.130Z,12.33
2019-04-30T17:20:32.852Z,13.07
2019-04-30T17:23:02.556Z,12.43
2019-04-30T17:25:32.355Z,12.27
2019-04-30T17:28:02.124Z,11.17
2019-04-30T17:30:31.708Z,12.63
2019-04-30T17:33:01.435Z,12.07
2019-04-30T17:35:31.128Z,11.17
2019-04-30T17:38:00.829Z,13.53
2019-04-30T17:40:30.590Z,12.33
2019-04-30T17:43:00.251Z,14.83
2019-04-30T17:45:29.975Z,13.07
2019-04-30T17:47:59.719Z,14.63
2019-04-30T17:50:29.659Z,14.33
2019-04-30T17:53:00.678Z,14.63
2019-04-30T17:55:30.483Z,16.70
2019-04-30T17:58:00.209Z,16.00
2019-04-30T18:00:31.445Z,15.67
2019-04-30T18:03:01.785Z,17.07
2019-04-30T18:05:31.659Z,18.23
2019-04-30T18:08:01.302Z,18.40
2019-04-30T18:10:31.279Z,18.03
2019-04-30T18:13:00.860Z,18.60
2019-04-30T18:15:31.267Z,18.73
2019-04-30T18:18:19.859Z,18.67
2019-04-30T18:20:56.922Z,17.80
2019-04-30T18:24:00.586Z,19.13
2019-04-30T18:26:30.279Z,18.43
2019-04-30T18:28:59.971Z,18.13
2019-04-30T18:31:29.919Z,18.00
2019-04-30T18:33:59.588Z,18.07
2019-04-30T18:36:29.423Z,16.97
2019-04-30T18:38:59.219Z,21.37
2019-04-30T18:41:28.951Z,17.47
2019-04-30T18:43:59.667Z,18.27
2019-04-30T18:46:29.472Z,17.97
2019-04-30T18:48:59.299Z,16.50
2019-04-30T18:51:38.395Z,18.47
2019-04-30T18:54:00.373Z,19.07
2019-04-30T18:56:30.052Z,18.80
2019-04-30T18:58:59.827Z,18.53
2019-04-30T19:01:29.492Z,17.77
2019-04-30T19:04:01.168Z,19.53
2019-04-30T19:06:30.554Z,18.40
2019-04-30T19:09:29.706Z,18.77
2019-04-30T19:12:19.421Z,19.00
2019-04-30T19:15:05.927Z,23.20
2019-04-30T19:17:51.206Z,20.80
2019-04-30T19:20:38.809Z,20.53
2019-04-30T19:23:10.144Z,20.23
2019-04-30T19:25:39.977Z,20.73
2019-04-30T19:28:14.233Z,20.20
2019-04-30T19:30:41.063Z,21.10
2019-04-30T19:33:10.923Z,19.27
2019-04-30T19:35:40.503Z,19.27
2019-04-30T19:38:10.235Z,19.53
2019-04-30T19:40:40.200Z,19.03
2019-04-30T19:43:09.820Z,18.60
2019-04-30T19:45:39.503Z,19.27
2019-04-30T19:48:09.238Z,18.97
2019-04-30T19:50:38.983Z,20.13
2019-04-30T19:53:08.869Z,25.23
2019-04-30T19:55:39.361Z,19.57
2019-04-30T19:58:10.787Z,19.47
2019-04-30T20:00:42.331Z,19.13
2019-04-30T20:03:12.184Z,20.37
2019-04-30T20:05:41.916Z,18.30
2019-04-30T20:08:11.597Z,18.87
2019-04-30T20:10:41.317Z,23.13
2019-04-30T20:13:11.054Z,18.10
2019-04-30T20:15:40.733Z,19.10
2019-04-30T20:18:10.457Z,19.47
2019-04-30T20:20:41.715Z,19.43
2019-04-30T20:23:11.543Z,19.23
2019-04-30T20:25:41.231Z,19.20
2019-04-30T20:28:12.319Z,20.27
2019-04-30T20:30:42.254Z,18.80
2019-04-30T20:33:12.035Z,19.43
2019-04-30T20:35:41.612Z,19.43
2019-04-30T20:38:36.029Z,18.00
2019-04-30T20:41:09.041Z,19.60
2019-04-30T20:43:39.487Z,19.03
2019-04-30T20:46:09.227Z,21.47
2019-04-30T20:48:39.339Z,20.80
2019-04-30T20:51:10.286Z,20.30
2019-04-30T20:53:41.020Z,19.37
2019-04-30T20:56:10.747Z,18.50
